Hovedside
METAR-TAF:

METAR-TAF

Lufthavner :

Norman Manley internasjonale lufthavn

Kingston, Jamaica

breddegrad: 17-56N, lengdegrad: 076-47W, høyde over havet: 3 m

Gjeldene værobservasjon

Denne rapporten ble laget for 54 minutter siden, klokken 17:00 UTC
Vind 8 kt fra Sør-sørvest
Temperatur 30°C
Luftfuktighet 66%
Trykk 1011 hPa
Sikt 10 km eller mer
Få skyer i en høyde av 2200 ft

METAR: MKJP 211700Z 21008KT 9999 FEW022 30/23 Q1011

Tid: 12:54 (17:54 UTC)

Varsel

Denne rapporten ble laget for 39 minutter siden, klokken 17:15 UTC
Varsel gyldig fra 21. klokken 18 UTC til 22. klokken 18 UTC
Vind 15 kt fra Sør
Sikt 10 km eller mer
Få skyer i en høyde av 2200 ft
Blir
fra 22. klokken 00 UTC til 22. klokken 02 UTC
Vind 3 kt fra Nord-nordvest
Blir
fra 22. klokken 14 UTC til 22. klokken 16 UTC
Vind 10 kt fra Sør-sørvest

TAF: MKJP 211715Z 2118/2218 17015KT 9999 FEW022 BECMG 2200/2202 34003KT BECMG 2214/2216 20010KT

Værobservasjoner og værvarsel for over 4000 flyplasser (METAR- og TAF-rapporter).

Tilgjengelige stasjoner er representert av de røde og gule prikkene på kartet.

Hold musepekeren over prikken for å se navnet på stasjonen.

Klikk så for å se værobservasjoner og -varsler.

For å forandre kartet kan du klikke på den grønne knappen med svart kryss for å zoome inn, på den grønne knappen med strek for å zoome ut, eller på de grønne pilene for å se tilstøtende kart.


METAR-TAF: